createdAt,value
2023-04-14T00:00:20.636Z,66.35
2023-04-14T00:01:20.799Z,67.27
2023-04-14T00:02:21.059Z,67.16
2023-04-14T00:03:21.373Z,66.96
2023-04-14T00:04:21.546Z,66.75
2023-04-14T00:05:21.611Z,67.07
2023-04-14T00:06:21.662Z,66.55
2023-04-14T00:07:21.839Z,65.91
2023-04-14T00:08:21.979Z,66.31
2023-04-14T00:09:22.154Z,65.80
2023-04-14T00:10:22.320Z,65.91
2023-04-14T00:11:22.484Z,65.91
2023-04-14T00:12:22.648Z,65.50
2023-04-14T00:13:22.817Z,65.91
2023-04-14T00:14:22.994Z,66.52
2023-04-14T00:15:23.167Z,66.62
2023-04-14T00:16:23.373Z,66.31
2023-04-14T00:17:23.523Z,67.03
2023-04-14T00:18:23.668Z,66.31
2023-04-14T00:19:23.850Z,66.01
2023-04-14T00:20:24.005Z,66.42
2023-04-14T00:21:24.237Z,66.62
2023-04-14T00:22:24.318Z,65.80
2023-04-14T00:23:24.481Z,65.67
2023-04-14T00:24:24.667Z,65.47
2023-04-14T00:25:24.832Z,65.77
2023-04-14T00:26:25.024Z,65.98
2023-04-14T00:27:25.173Z,65.37
2023-04-14T00:28:25.330Z,64.96
2023-04-14T00:29:25.511Z,65.47
2023-04-14T00:30:25.667Z,65.37
2023-04-14T00:31:25.930Z,65.57
2023-04-14T00:32:26.098Z,65.06
2023-04-14T00:33:26.220Z,65.26
2023-04-14T00:34:26.405Z,65.26
2023-04-14T00:35:26.573Z,65.26
2023-04-14T00:36:26.742Z,65.06
2023-04-14T00:37:26.919Z,64.86
2023-04-14T00:38:27.082Z,64.86
2023-04-14T00:39:27.276Z,65.06
2023-04-14T00:40:27.402Z,65.26
2023-04-14T00:41:27.564Z,65.13
2023-04-14T00:42:27.744Z,64.96
2023-04-14T00:43:27.895Z,64.55
2023-04-14T00:44:28.073Z,64.45
2023-04-14T00:45:28.254Z,65.57
2023-04-14T00:46:28.489Z,65.34
2023-04-14T00:47:28.629Z,65.03
2023-04-14T00:48:28.823Z,65.13
2023-04-14T00:49:28.945Z,65.03
2023-04-14T00:50:29.106Z,64.72
2023-04-14T00:51:29.271Z,64.72
2023-04-14T00:52:29.438Z,64.62
2023-04-14T00:53:29.622Z,64.83
2023-04-14T00:54:29.755Z,64.52
2023-04-14T00:55:29.919Z,64.62
2023-04-14T00:56:30.079Z,64.93
2023-04-14T00:57:30.256Z,64.83
2023-04-14T00:58:30.414Z,64.72
2023-04-14T00:59:30.625Z,64.52
2023-04-14T01:00:30.784Z,65.03
2023-04-14T01:01:31.008Z,64.62
2023-04-14T01:02:31.337Z,64.52
2023-04-14T01:03:31.440Z,65.23
2023-04-14T01:04:45.173Z,65.13
2023-04-14T01:05:32.662Z,64.83
2023-04-14T01:06:31.847Z,65.13
2023-04-14T01:07:32.018Z,64.72
2023-04-14T01:08:32.200Z,64.62
2023-04-14T01:09:32.360Z,64.83
2023-04-14T01:10:32.524Z,65.13
2023-04-14T01:11:32.680Z,64.83
2023-04-14T01:12:32.838Z,65.03
2023-04-14T01:13:33.041Z,64.83
2023-04-14T01:14:33.170Z,64.83
2023-04-14T01:15:33.331Z,65.03
2023-04-14T01:16:33.614Z,65.23
2023-04-14T01:17:33.662Z,64.93
2023-04-14T01:18:33.883Z,64.72
2023-04-14T01:19:34.005Z,64.72
2023-04-14T01:20:34.185Z,65.13
2023-04-14T01:21:34.333Z,64.62
2023-04-14T01:22:34.488Z,65.23
2023-04-14T01:23:34.743Z,64.83
2023-04-14T01:24:34.863Z,64.62
2023-04-14T01:25:35.029Z,64.62
2023-04-14T01:26:35.183Z,64.52
2023-04-14T01:27:35.377Z,64.42
2023-04-14T01:28:35.554Z,64.72
2023-04-14T01:29:35.714Z,64.42
2023-04-14T01:30:35.879Z,64.31
2023-04-14T01:31:36.074Z,64.11
2023-04-14T01:32:36.230Z,64.22
2023-04-14T01:33:36.392Z,64.93
2023-04-14T01:34:36.559Z,64.31
2023-04-14T01:35:36.716Z,64.62
2023-04-14T01:36:36.887Z,65.34
2023-04-14T01:37:37.047Z,64.62
2023-04-14T01:38:37.221Z,64.52
2023-04-14T01:39:37.388Z,64.52
2023-04-14T01:40:37.543Z,64.93
2023-04-14T01:41:37.705Z,64.93
2023-04-14T01:42:37.907Z,64.93
2023-04-14T01:43:38.053Z,64.42
2023-04-14T01:44:38.222Z,64.83
2023-04-14T01:45:38.508Z,64.93
2023-04-14T01:46:38.557Z,64.42
2023-04-14T01:47:38.773Z,64.93
2023-04-14T01:48:38.909Z,64.62
2023-04-14T01:49:39.130Z,64.72
2023-04-14T01:50:39.247Z,64.52
2023-04-14T01:51:39.417Z,64.42
2023-04-14T01:52:39.597Z,64.22
2023-04-14T01:53:39.778Z,64.42
2023-04-14T01:54:39.940Z,64.22
2023-04-14T01:55:40.122Z,64.52
2023-04-14T01:56:40.265Z,64.62
2023-04-14T01:57:40.434Z,64.31
2023-04-14T01:58:40.615Z,64.52
2023-04-14T01:59:40.783Z,64.62
2023-04-14T02:00:41.004Z,64.83
2023-04-14T02:01:41.115Z,64.72
2023-04-14T02:02:41.400Z,65.54
2023-04-14T02:03:41.576Z,64.93
2023-04-14T02:04:41.636Z,64.83
2023-04-14T02:05:41.821Z,65.13
2023-04-14T02:06:41.994Z,65.03
2023-04-14T02:07:42.166Z,65.03
2023-04-14T02:08:42.321Z,65.84
2023-04-14T02:09:42.494Z,66.25
2023-04-14T02:10:42.642Z,66.15
2023-04-14T02:11:42.810Z,66.46
2023-04-14T02:12:42.992Z,66.36
2023-04-14T02:13:43.154Z,66.56
2023-04-14T02:14:43.331Z,66.80
2023-04-14T02:15:43.484Z,67.10
2023-04-14T02:16:43.673Z,67.21
2023-04-14T02:17:43.871Z,67.30
2023-04-14T02:18:43.998Z,67.51
2023-04-14T02:19:44.163Z,68.02
2023-04-14T02:20:44.324Z,68.12
2023-04-14T02:21:44.489Z,68.23
2023-04-14T02:22:44.659Z,68.02
2023-04-14T02:23:44.827Z,68.33
2023-04-14T02:24:44.983Z,68.46
2023-04-14T02:25:45.182Z,68.26
2023-04-14T02:26:45.369Z,68.26
2023-04-14T02:27:45.530Z,68.26
2023-04-14T02:28:45.685Z,68.57
2023-04-14T02:29:45.877Z,68.57
2023-04-14T02:30:46.057Z,68.46
2023-04-14T02:31:46.178Z,67.95
2023-04-14T02:32:46.384Z,67.85
2023-04-14T02:33:46.499Z,68.05
2023-04-14T02:34:46.655Z,67.85
2023-04-14T02:35:46.818Z,67.44
2023-04-14T02:36:47.005Z,67.13
2023-04-14T02:37:47.155Z,66.62
2023-04-14T02:38:47.319Z,66.80
2023-04-14T02:39:47.488Z,67.21
2023-04-14T02:40:47.658Z,67.21
2023-04-14T02:41:47.821Z,67.00
2023-04-14T02:42:48.025Z,66.80
2023-04-14T02:43:48.175Z,66.69
2023-04-14T02:44:48.366Z,66.49
2023-04-14T02:45:48.582Z,66.69
2023-04-14T02:46:48.716Z,66.59
2023-04-14T02:47:48.986Z,66.28
2023-04-14T02:48:49.064Z,66.39
2023-04-14T02:49:49.233Z,66.28
2023-04-14T02:50:49.400Z,66.18
2023-04-14T02:51:49.567Z,65.98
2023-04-14T02:52:49.752Z,65.88
2023-04-14T02:53:49.908Z,65.98
2023-04-14T02:54:50.106Z,65.77
2023-04-14T02:55:50.268Z,65.77
2023-04-14T02:56:50.440Z,65.57
2023-04-14T02:57:50.618Z,65.47
2023-04-14T02:58:50.778Z,65.47
2023-04-14T02:59:50.937Z,65.37
2023-04-14T03:00:51.101Z,65.47
2023-04-14T03:01:51.345Z,65.44
2023-04-14T03:02:51.564Z,65.37
2023-04-14T03:03:51.633Z,65.37
2023-04-14T03:04:51.783Z,65.23
2023-04-14T03:05:51.962Z,65.34
2023-04-14T03:06:52.124Z,65.26
2023-04-14T03:07:52.303Z,65.23
2023-04-14T03:08:52.470Z,65.34
2023-04-14T03:09:52.637Z,65.34
2023-04-14T03:10:52.797Z,65.34
2023-04-14T03:11:52.967Z,65.34
2023-04-14T03:12:53.153Z,65.34
2023-04-14T03:13:53.304Z,65.13
2023-04-14T03:14:53.486Z,65.13
2023-04-14T03:15:53.680Z,65.03
2023-04-14T03:16:53.832Z,64.93
2023-04-14T03:17:54.309Z,64.83
2023-04-14T03:18:54.172Z,64.72
2023-04-14T03:19:54.337Z,64.86
2023-04-14T03:20:54.501Z,64.75
2023-04-14T03:21:54.673Z,65.06
2023-04-14T03:22:54.850Z,64.86
2023-04-14T03:23:54.987Z,64.96
2023-04-14T03:24:55.154Z,65.06
2023-04-14T03:25:55.322Z,64.96
2023-04-14T03:26:55.475Z,64.96
2023-04-14T03:27:55.654Z,65.06
2023-04-14T03:28:55.841Z,65.06
2023-04-14T03:29:55.991Z,65.06
2023-04-14T03:30:56.244Z,65.30
2023-04-14T03:31:56.312Z,65.30
2023-04-14T03:32:56.509Z,65.40
2023-04-14T03:33:56.651Z,65.50
2023-04-14T03:34:56.874Z,65.50
2023-04-14T03:35:56.988Z,65.60
2023-04-14T03:36:57.153Z,65.50
2023-04-14T03:37:57.338Z,65.50
2023-04-14T03:38:57.747Z,65.50
2023-04-14T03:39:57.650Z,65.50
2023-04-14T03:40:57.822Z,65.37
2023-04-14T03:41:57.999Z,65.37
2023-04-14T03:42:58.158Z,65.37
2023-04-14T03:43:58.338Z,65.47
2023-04-14T03:44:58.507Z,65.16
2023-04-14T03:45:58.657Z,65.16
2023-04-14T03:46:58.871Z,65.16
2023-04-14T03:47:59.079Z,65.26
2023-04-14T03:48:59.394Z,65.06
2023-04-14T03:49:59.374Z,65.16
2023-04-14T03:50:59.541Z,65.37
2023-04-14T03:51:59.708Z,65.26
2023-04-14T03:52:59.903Z,65.16
2023-04-14T03:54:00.054Z,64.96
2023-04-14T03:55:00.211Z,65.37
2023-04-14T03:56:00.381Z,65.26
2023-04-14T03:57:00.585Z,65.06
2023-04-14T03:58:00.754Z,65.06
2023-04-14T03:59:01.250Z,65.06
2023-04-14T04:00:01.095Z,64.86
2023-04-14T04:01:01.297Z,65.06
2023-04-14T04:02:01.601Z,65.06
2023-04-14T04:03:01.819Z,65.26
2023-04-14T04:04:01.895Z,65.16
2023-04-14T04:05:02.059Z,65.06
2023-04-14T04:06:02.121Z,64.96
2023-04-14T04:07:02.297Z,64.86
2023-04-14T04:08:02.492Z,64.86
2023-04-14T04:09:02.928Z,64.86
2023-04-14T04:10:02.806Z,64.55
2023-04-14T04:11:02.986Z,64.65
2023-04-14T04:12:03.169Z,64.75
2023-04-14T04:13:03.358Z,64.72
2023-04-14T04:14:03.509Z,64.62
2023-04-14T04:15:03.718Z,64.52
2023-04-14T04:16:03.889Z,64.52
2023-04-14T04:17:04.121Z,64.31
2023-04-14T04:18:04.317Z,64.22
2023-04-14T04:19:04.385Z,64.22
2023-04-14T04:20:06.763Z,64.22
2023-04-14T04:21:04.744Z,63.81
2023-04-14T04:22:04.942Z,63.70
2023-04-14T04:23:05.141Z,63.81
2023-04-14T04:24:05.305Z,63.90
2023-04-14T04:25:05.470Z,64.01
2023-04-14T04:26:05.675Z,64.22
2023-04-14T04:27:09.866Z,64.01
2023-04-14T04:28:06.987Z,64.11
2023-04-14T04:29:06.149Z,64.11
2023-04-14T04:30:06.294Z,64.01
2023-04-14T04:31:06.465Z,63.98
2023-04-14T04:32:06.730Z,63.87
2023-04-14T04:33:06.825Z,63.87
2023-04-14T04:34:06.957Z,63.87
2023-04-14T04:35:07.136Z,63.98
2023-04-14T04:36:07.282Z,63.87
2023-04-14T04:37:07.480Z,63.98
2023-04-14T04:38:07.634Z,63.98
2023-04-14T04:39:07.824Z,63.87
2023-04-14T04:40:08.012Z,63.67
2023-04-14T04:41:08.187Z,63.67
2023-04-14T04:42:08.376Z,63.87
2023-04-14T04:43:08.575Z,63.85
2023-04-14T04:44:08.718Z,63.54
2023-04-14T04:45:08.888Z,63.34
2023-04-14T04:46:09.091Z,63.75
2023-04-14T04:47:09.288Z,63.85
2023-04-14T04:48:09.445Z,63.85
2023-04-14T04:49:09.593Z,63.85
2023-04-14T04:50:09.752Z,63.95
2023-04-14T04:51:09.937Z,63.75
2023-04-14T04:52:10.094Z,63.95
2023-04-14T04:53:10.308Z,63.75
2023-04-14T04:54:10.446Z,63.75
2023-04-14T04:55:10.630Z,64.15
2023-04-14T04:56:10.805Z,63.75
2023-04-14T04:57:12.157Z,63.64
2023-04-14T04:58:11.150Z,63.54
2023-04-14T04:59:11.299Z,63.54
2023-04-14T05:00:11.473Z,62.82
2023-04-14T05:01:11.675Z,63.34
2023-04-14T05:02:11.873Z,63.64
2023-04-14T05:03:12.112Z,64.36
2023-04-14T05:04:12.202Z,64.15
2023-04-14T05:05:12.369Z,63.95
2023-04-14T05:06:12.534Z,63.75
2023-04-14T05:07:12.730Z,62.82
2023-04-14T05:08:15.050Z,63.13
2023-04-14T05:09:13.083Z,63.75
2023-04-14T05:10:13.252Z,63.54
2023-04-14T05:11:13.443Z,63.34
2023-04-14T05:12:13.642Z,63.34
2023-04-14T05:13:13.831Z,63.41
2023-04-14T05:14:14.000Z,63.51
2023-04-14T05:15:14.192Z,63.61
2023-04-14T05:16:14.396Z,63.41
2023-04-14T05:17:14.531Z,63.10
2023-04-14T05:18:14.702Z,63.10
2023-04-14T05:19:14.890Z,63.20
2023-04-14T05:20:15.057Z,62.49
2023-04-14T05:21:15.257Z,62.70
2023-04-14T05:22:15.416Z,62.59
2023-04-14T05:23:15.632Z,62.80
2023-04-14T05:24:15.769Z,62.59
2023-04-14T05:25:15.936Z,63.10
2023-04-14T05:26:39.053Z,63.31
2023-04-14T05:27:17.278Z,63.31
2023-04-14T05:28:16.464Z,63.20
2023-04-14T05:29:16.659Z,63.20
2023-04-14T05:30:16.825Z,63.31
2023-04-14T05:31:17.050Z,63.41
2023-04-14T05:32:17.190Z,63.82
2023-04-14T05:33:17.365Z,63.82
2023-04-14T05:34:17.534Z,63.68
2023-04-14T05:35:17.727Z,62.56
2023-04-14T05:36:17.873Z,62.66
2023-04-14T05:37:18.082Z,62.97
2023-04-14T05:38:18.241Z,63.38
2023-04-14T05:39:18.409Z,63.28
2023-04-14T05:40:18.558Z,62.77
2023-04-14T05:41:18.770Z,63.38
2023-04-14T05:42:18.920Z,63.38
2023-04-14T05:43:19.127Z,63.58
2023-04-14T05:44:19.277Z,63.68
2023-04-14T05:45:19.491Z,63.68
2023-04-14T05:46:19.686Z,63.79
2023-04-14T05:47:19.880Z,63.76
2023-04-14T05:48:20.017Z,63.86
2023-04-14T05:49:20.175Z,63.86
2023-04-14T05:50:20.363Z,63.96
2023-04-14T05:51:20.541Z,64.57
2023-04-14T05:52:20.732Z,64.47
2023-04-14T05:53:20.909Z,63.76
2023-04-14T05:54:21.096Z,63.56
2023-04-14T05:55:21.295Z,63.79
2023-04-14T05:56:21.516Z,64.06
2023-04-14T05:57:21.622Z,63.76
2023-04-14T05:58:21.807Z,63.86
2023-04-14T05:59:21.976Z,64.37
2023-04-14T06:00:22.147Z,63.86
2023-04-14T06:01:22.323Z,63.96
2023-04-14T06:02:22.709Z,63.96
2023-04-14T06:03:22.890Z,63.76
2023-04-14T06:04:23.158Z,63.96
2023-04-14T06:05:23.114Z,64.06
2023-04-14T06:06:23.170Z,64.17
2023-04-14T06:07:23.353Z,64.37
2023-04-14T06:08:23.550Z,64.17
2023-04-14T06:09:23.739Z,63.76
2023-04-14T06:10:23.921Z,63.86
2023-04-14T06:11:24.096Z,64.06
2023-04-14T06:12:24.272Z,63.56
2023-04-14T06:13:24.513Z,63.86
2023-04-14T06:14:24.617Z,64.17
2023-04-14T06:15:24.792Z,64.06
2023-04-14T06:16:24.998Z,64.23
2023-04-14T06:17:25.190Z,64.23
2023-04-14T06:18:25.341Z,63.62
2023-04-14T06:19:25.498Z,64.14
2023-04-14T06:20:25.656Z,64.34
2023-04-14T06:21:25.830Z,64.84
2023-04-14T06:22:26.019Z,64.34
2023-04-14T06:23:26.184Z,64.34
2023-04-14T06:24:26.371Z,64.03
2023-04-14T06:25:26.550Z,63.93
2023-04-14T06:26:26.733Z,64.11
2023-04-14T06:27:26.918Z,63.70
2023-04-14T06:28:27.097Z,63.90
2023-04-14T06:29:27.301Z,63.90
2023-04-14T06:30:27.441Z,63.70
2023-04-14T06:31:27.631Z,63.39
2023-04-14T06:32:27.840Z,63.39
2023-04-14T06:33:28.047Z,63.59
2023-04-14T06:34:28.147Z,64.00
2023-04-14T06:35:33.453Z,64.00
2023-04-14T06:36:29.497Z,63.70
2023-04-14T06:37:28.681Z,63.80
2023-04-14T06:38:28.956Z,64.18
2023-04-14T06:39:29.053Z,64.28
2023-04-14T06:40:29.235Z,64.38
2023-04-14T06:41:29.377Z,64.69
2023-04-14T06:42:29.544Z,64.07
2023-04-14T06:43:29.837Z,63.97
2023-04-14T06:44:29.889Z,63.97
2023-04-14T06:45:30.037Z,64.25
2023-04-14T06:46:30.479Z,63.84
2023-04-14T06:47:30.398Z,63.64
2023-04-14T06:48:30.706Z,63.74
2023-04-14T06:49:30.765Z,63.02
2023-04-14T06:50:30.912Z,63.43
2023-04-14T06:51:31.064Z,63.84
2023-04-14T06:52:31.244Z,63.94
2023-04-14T06:53:31.452Z,64.04
2023-04-14T06:54:31.608Z,64.15
2023-04-14T06:55:31.789Z,63.54
2023-04-14T06:56:31.963Z,63.74
2023-04-14T06:57:32.144Z,63.94
2023-04-14T06:58:32.457Z,63.71
2023-04-14T06:59:32.479Z,63.91
2023-04-14T07:00:32.686Z,62.79
2023-04-14T07:01:32.908Z,62.93
2023-04-14T07:02:33.140Z,63.02
2023-04-14T07:03:33.232Z,63.43
2023-04-14T07:04:33.412Z,63.33
2023-04-14T07:05:33.544Z,63.10
2023-04-14T07:06:33.733Z,63.20
2023-04-14T07:07:33.889Z,62.79
2023-04-14T07:08:34.119Z,62.79
2023-04-14T07:09:34.270Z,63.60
2023-04-14T07:10:34.438Z,63.51
2023-04-14T07:11:34.575Z,63.51
2023-04-14T07:12:34.791Z,63.51
2023-04-14T07:13:34.934Z,63.30
2023-04-14T07:14:35.121Z,63.00
2023-04-14T07:15:35.323Z,63.00
2023-04-14T07:16:35.478Z,63.30
2023-04-14T07:17:35.679Z,63.30
2023-04-14T07:18:35.880Z,64.01
2023-04-14T07:19:35.998Z,64.01
2023-04-14T07:20:36.171Z,63.10
2023-04-14T07:21:36.362Z,62.90
2023-04-14T07:22:36.537Z,63.20
2023-04-14T07:23:36.727Z,63.30
2023-04-14T07:24:36.916Z,63.71
2023-04-14T07:25:37.109Z,63.20
2023-04-14T07:26:37.284Z,62.59
2023-04-14T07:27:37.497Z,63.64
2023-04-14T07:28:37.645Z,64.04
2023-04-14T07:29:37.827Z,64.65
2023-04-14T07:30:38.001Z,64.65
2023-04-14T07:31:38.294Z,64.04
2023-04-14T07:32:38.441Z,64.32
2023-04-14T07:33:38.572Z,63.51
2023-04-14T07:34:38.742Z,63.20
2023-04-14T07:35:41.881Z,64.42
2023-04-14T07:36:40.088Z,64.52
2023-04-14T07:37:39.242Z,64.79
2023-04-14T07:38:39.431Z,64.39
2023-04-14T07:39:39.652Z,63.68
2023-04-14T07:40:40.186Z,64.09
2023-04-14T07:41:39.932Z,63.48
2023-04-14T07:42:40.131Z,64.09
2023-04-14T07:43:40.323Z,63.68
2023-04-14T07:44:40.500Z,63.24
2023-04-14T07:45:40.678Z,63.75
2023-04-14T07:46:40.933Z,62.53
2023-04-14T07:47:41.069Z,62.94
2023-04-14T07:48:41.232Z,63.24
2023-04-14T07:49:41.392Z,63.85
2023-04-14T07:50:41.585Z,63.45
2023-04-14T07:51:41.763Z,63.34
2023-04-14T07:52:41.912Z,63.85
2023-04-14T07:53:42.125Z,63.45
2023-04-14T07:54:42.268Z,62.74
2023-04-14T07:55:42.461Z,63.24
2023-04-14T07:56:42.636Z,63.34
2023-04-14T07:57:42.814Z,63.14
2023-04-14T07:58:43.030Z,63.34
2023-04-14T07:59:43.169Z,62.43
2023-04-14T08:00:43.348Z,63.34
2023-04-14T08:01:43.754Z,62.94
2023-04-14T08:02:44.022Z,62.94
2023-04-14T08:03:45.497Z,62.84
2023-04-14T08:04:44.070Z,63.65
2023-04-14T08:05:44.313Z,63.75
2023-04-14T08:06:44.517Z,64.26
2023-04-14T08:07:44.683Z,64.97
2023-04-14T08:08:44.801Z,65.68
2023-04-14T08:09:44.980Z,64.76
2023-04-14T08:10:45.146Z,63.65
2023-04-14T08:11:45.322Z,64.67
2023-04-14T08:12:45.530Z,65.07
2023-04-14T08:13:45.673Z,64.67
2023-04-14T08:14:45.852Z,64.87
2023-04-14T08:15:46.064Z,65.37
2023-04-14T08:16:46.253Z,64.46
2023-04-14T08:17:46.445Z,65.27
2023-04-14T08:18:46.578Z,65.48
2023-04-14T08:19:46.765Z,65.17
2023-04-14T08:20:46.927Z,64.06
2023-04-14T08:21:47.178Z,64.87
2023-04-14T08:22:47.300Z,64.09
2023-04-14T08:23:47.467Z,64.39
2023-04-14T08:24:47.626Z,66.12
2023-04-14T08:25:47.833Z,64.49
2023-04-14T08:26:47.986Z,65.41
2023-04-14T08:27:48.176Z,65.81
2023-04-14T08:28:48.351Z,65.51
2023-04-14T08:29:48.533Z,65.30
2023-04-14T08:30:48.714Z,65.30
2023-04-14T08:31:48.952Z,65.41
2023-04-14T08:32:49.144Z,65.17
2023-04-14T08:33:49.244Z,64.39
2023-04-14T08:35:36.226Z,65.07
2023-04-14T08:35:58.902Z,64.87
2023-04-14T08:36:52.837Z,64.15
2023-04-14T08:37:49.937Z,64.56
2023-04-14T08:38:50.130Z,64.18
2023-04-14T08:39:50.300Z,64.59
2023-04-14T08:40:50.471Z,64.70
2023-04-14T08:41:50.649Z,64.39
2023-04-14T08:42:50.846Z,64.18
2023-04-14T08:43:50.985Z,63.48
2023-04-14T08:44:51.167Z,64.70
2023-04-14T08:45:51.419Z,64.56
2023-04-14T08:46:51.517Z,64.49
2023-04-14T08:47:51.735Z,64.90
2023-04-14T08:48:51.878Z,63.07
2023-04-14T08:49:52.054Z,63.98
2023-04-14T08:50:52.251Z,64.59
2023-04-14T08:51:52.393Z,63.68
2023-04-14T08:52:52.598Z,64.39
2023-04-14T08:53:52.761Z,64.90
2023-04-14T08:54:52.942Z,64.49
2023-04-14T08:55:53.129Z,66.63
2023-04-14T08:56:53.340Z,65.07
2023-04-14T08:57:53.519Z,65.17
2023-04-14T08:58:53.643Z,65.07
2023-04-14T08:59:53.826Z,65.78
2023-04-14T09:00:54.101Z,64.67
2023-04-14T09:01:54.384Z,63.65
2023-04-14T09:02:54.470Z,65.04
2023-04-14T09:03:54.670Z,64.13
2023-04-14T09:04:54.800Z,62.51
2023-04-14T09:05:54.847Z,63.21
2023-04-14T09:06:55.039Z,63.52
2023-04-14T09:07:55.240Z,63.75
2023-04-14T09:08:55.392Z,62.60
2023-04-14T09:09:55.564Z,63.11
2023-04-14T09:10:55.774Z,63.62
2023-04-14T09:11:55.928Z,65.14
2023-04-14T09:12:56.120Z,64.43
2023-04-14T09:13:56.274Z,63.52
2023-04-14T09:14:56.426Z,63.72
2023-04-14T09:15:56.613Z,63.52
2023-04-14T09:16:56.824Z,64.64
2023-04-14T09:17:57.017Z,64.53
2023-04-14T09:18:57.529Z,64.23
2023-04-14T09:20:35.614Z,65.34
2023-04-14T09:21:49.605Z,63.92
2023-04-14T09:21:58.757Z,62.60
2023-04-14T09:22:57.824Z,63.04
2023-04-14T09:23:57.983Z,63.14
2023-04-14T09:24:58.134Z,62.02
2023-04-14T09:25:58.315Z,62.43
2023-04-14T09:26:58.495Z,63.95
2023-04-14T09:27:58.680Z,64.06
2023-04-14T09:28:59.107Z,64.46
2023-04-14T09:29:59.046Z,63.75
2023-04-14T09:30:59.368Z,62.43
2023-04-14T09:31:59.404Z,63.24
2023-04-14T09:32:59.641Z,64.46
2023-04-14T09:34:00.077Z,63.04
2023-04-14T09:34:59.945Z,62.43
2023-04-14T09:36:00.134Z,63.58
2023-04-14T09:37:00.300Z,64.29
2023-04-14T09:38:00.485Z,64.49
2023-04-14T09:39:00.638Z,65.81
2023-04-14T09:40:00.838Z,65.10
2023-04-14T09:41:01.006Z,64.90
2023-04-14T09:42:01.193Z,65.30
2023-04-14T09:43:01.406Z,65.23
2023-04-14T09:44:01.676Z,64.73
2023-04-14T09:45:01.743Z,65.23
2023-04-14T09:46:01.958Z,67.06
2023-04-14T09:47:02.155Z,65.03
2023-04-14T09:48:02.351Z,65.84
2023-04-14T09:49:02.443Z,65.23
2023-04-14T09:50:02.606Z,65.74
2023-04-14T09:51:02.831Z,65.88
2023-04-14T09:52:02.994Z,66.38
2023-04-14T09:53:03.172Z,66.08
2023-04-14T09:54:03.556Z,66.69
2023-04-14T09:55:03.522Z,64.99
2023-04-14T09:56:03.725Z,67.13
2023-04-14T09:57:03.897Z,66.79
2023-04-14T09:58:04.016Z,66.58
2023-04-14T09:59:04.564Z,67.40
2023-04-14T10:00:04.384Z,66.18
2023-04-14T10:01:04.582Z,65.88
2023-04-14T10:02:04.911Z,66.08
2023-04-14T10:03:04.957Z,66.58
2023-04-14T10:04:05.048Z,66.08
2023-04-14T10:05:05.387Z,66.21
2023-04-14T10:06:05.404Z,66.72
2023-04-14T10:07:05.594Z,66.52
2023-04-14T10:08:05.753Z,65.80
2023-04-14T10:09:05.914Z,66.11
2023-04-14T10:10:06.079Z,67.43
2023-04-14T10:11:06.269Z,67.02
2023-04-14T10:12:09.055Z,65.80
2023-04-14T10:13:06.635Z,64.89
2023-04-14T10:14:06.798Z,66.11
2023-04-14T10:15:06.963Z,67.22
2023-04-14T10:16:07.179Z,66.72
2023-04-14T10:17:07.386Z,65.91
2023-04-14T10:18:07.575Z,65.91
2023-04-14T10:19:07.673Z,66.41
2023-04-14T10:20:07.888Z,67.43
2023-04-14T10:21:08.041Z,67.13
2023-04-14T10:22:08.186Z,67.13
2023-04-14T10:23:08.390Z,67.63
2023-04-14T10:24:08.527Z,66.11
2023-04-14T10:25:08.715Z,67.43
2023-04-14T10:26:08.871Z,67.53
2023-04-14T10:27:09.054Z,67.74
2023-04-14T10:28:09.261Z,67.02
2023-04-14T10:29:09.457Z,67.02
2023-04-14T10:30:09.587Z,66.52
2023-04-14T10:31:09.794Z,66.11
2023-04-14T10:32:09.925Z,65.70
2023-04-14T10:33:10.125Z,66.61
2023-04-14T10:34:10.276Z,66.21
2023-04-14T10:35:10.487Z,67.13
2023-04-14T10:36:10.612Z,67.02
2023-04-14T10:37:10.774Z,67.22
2023-04-14T10:38:10.976Z,66.85
2023-04-14T10:39:11.127Z,67.94
2023-04-14T10:40:11.312Z,68.04
2023-04-14T10:41:11.490Z,68.35
2023-04-14T10:42:11.653Z,67.43
2023-04-14T10:43:11.816Z,67.91
2023-04-14T10:44:12.049Z,67.91
2023-04-14T10:45:12.151Z,67.60
2023-04-14T10:46:12.372Z,68.01
2023-04-14T10:47:12.633Z,67.67
2023-04-14T10:48:12.718Z,66.66
2023-04-14T10:49:12.851Z,66.35
2023-04-14T10:50:13.038Z,66.42
2023-04-14T10:51:13.198Z,66.52
2023-04-14T10:52:13.409Z,65.99
2023-04-14T10:53:13.545Z,64.67
2023-04-14T10:54:13.719Z,64.70
2023-04-14T10:55:13.924Z,64.79
2023-04-14T10:56:14.081Z,64.39
2023-04-14T10:57:14.301Z,64.18
2023-04-14T10:58:14.478Z,65.00
2023-04-14T10:59:14.625Z,64.56
2023-04-14T11:00:14.790Z,64.39
2023-04-14T11:01:15.017Z,63.58
2023-04-14T11:02:15.215Z,64.46
2023-04-14T11:03:15.476Z,64.97
2023-04-14T11:04:15.627Z,64.56
2023-04-14T11:05:15.674Z,64.56
2023-04-14T11:06:15.856Z,63.95
2023-04-14T11:07:16.039Z,63.55
2023-04-14T11:08:16.236Z,63.85
2023-04-14T11:09:16.385Z,64.67
2023-04-14T11:10:16.600Z,63.17
2023-04-14T11:11:16.753Z,64.59
2023-04-14T11:12:17.016Z,63.68
2023-04-14T11:13:17.892Z,62.97
2023-04-14T11:14:17.277Z,63.78
2023-04-14T11:15:17.447Z,63.78
2023-04-14T11:16:17.626Z,64.49
2023-04-14T11:17:17.836Z,64.39
2023-04-14T11:18:18.035Z,64.79
2023-04-14T11:19:18.131Z,64.90
2023-04-14T11:20:18.380Z,63.88
2023-04-14T11:21:18.493Z,64.18
2023-04-14T11:22:18.693Z,65.41
2023-04-14T11:23:18.840Z,65.91
2023-04-14T11:24:19.022Z,65.41
2023-04-14T11:25:20.800Z,64.39
2023-04-14T11:26:19.378Z,65.94
2023-04-14T11:27:19.586Z,66.25
2023-04-14T11:28:19.742Z,65.33
2023-04-14T11:29:19.898Z,65.44
2023-04-14T11:30:20.106Z,66.46
2023-04-14T11:31:22.982Z,66.46
2023-04-14T11:32:20.456Z,65.71
2023-04-14T11:33:20.611Z,65.23
2023-04-14T11:34:20.759Z,65.64
2023-04-14T11:35:20.946Z,65.03
2023-04-14T11:36:21.142Z,66.05
2023-04-14T11:37:22.609Z,66.25
2023-04-14T11:38:21.508Z,65.44
2023-04-14T11:39:21.646Z,65.84
2023-04-14T11:40:21.874Z,66.35
2023-04-14T11:41:22.056Z,65.84
2023-04-14T11:42:22.278Z,65.23
2023-04-14T11:43:22.929Z,65.94
2023-04-14T11:44:22.570Z,64.93
2023-04-14T11:45:22.764Z,65.06
2023-04-14T11:46:22.981Z,65.47
2023-04-14T11:47:23.100Z,64.96
2023-04-14T11:48:23.286Z,66.08
2023-04-14T11:49:23.429Z,65.26
2023-04-14T11:50:23.608Z,66.69
2023-04-14T11:51:23.796Z,66.18
2023-04-14T11:52:23.975Z,66.69
2023-04-14T11:53:24.177Z,67.10
2023-04-14T11:54:24.331Z,67.60
2023-04-14T11:55:24.693Z,67.60
2023-04-14T11:56:24.689Z,66.99
2023-04-14T11:57:24.879Z,66.18
2023-04-14T11:58:25.048Z,66.52
2023-04-14T11:59:25.205Z,66.21
2023-04-14T12:00:25.461Z,66.31
2023-04-14T12:01:25.554Z,66.75
2023-04-14T12:02:25.803Z,66.65
2023-04-14T12:03:25.986Z,68.07
2023-04-14T12:04:26.153Z,67.87
2023-04-14T12:05:26.224Z,68.10
2023-04-14T12:06:26.400Z,67.39
2023-04-14T12:07:26.548Z,68.31
2023-04-14T12:08:26.764Z,68.82
2023-04-14T12:09:26.918Z,70.24
2023-04-14T12:10:27.108Z,70.04
2023-04-14T12:11:27.279Z,70.55
2023-04-14T12:12:28.801Z,70.75
2023-04-14T12:13:27.642Z,69.23
2023-04-14T12:14:27.789Z,70.41
2023-04-14T12:15:27.976Z,70.62
2023-04-14T12:16:28.232Z,69.60
2023-04-14T12:17:28.358Z,69.49
2023-04-14T12:18:28.559Z,70.31
2023-04-14T12:19:28.647Z,70.58
2023-04-14T12:20:28.834Z,69.57
2023-04-14T12:21:29.009Z,69.87
2023-04-14T12:22:29.217Z,69.36
2023-04-14T12:23:29.382Z,69.26
2023-04-14T12:24:29.526Z,68.85
2023-04-14T12:25:29.699Z,69.46
2023-04-14T12:26:29.879Z,68.35
2023-04-14T12:27:30.105Z,67.63
2023-04-14T12:28:30.255Z,67.16
2023-04-14T12:29:30.400Z,68.27
2023-04-14T12:30:30.587Z,68.07
2023-04-14T12:31:30.885Z,68.99
2023-04-14T12:32:30.947Z,68.07
2023-04-14T12:33:31.056Z,69.09
2023-04-14T12:34:31.244Z,68.07
2023-04-14T12:35:31.384Z,68.88
2023-04-14T12:36:48.118Z,68.48
2023-04-14T12:37:32.765Z,69.29
2023-04-14T12:38:31.907Z,69.19
2023-04-14T12:39:32.074Z,69.29
2023-04-14T12:40:32.274Z,69.60
2023-04-14T12:41:32.425Z,69.49
2023-04-14T12:42:32.635Z,69.49
2023-04-14T12:43:32.783Z,69.49
2023-04-14T12:44:32.962Z,69.09
2023-04-14T12:45:33.138Z,69.49
2023-04-14T12:46:33.357Z,69.16
2023-04-14T12:47:33.506Z,69.57
2023-04-14T12:48:33.652Z,69.26
2023-04-14T12:49:33.831Z,68.44
2023-04-14T12:50:34.011Z,68.14
2023-04-14T12:51:34.197Z,68.14
2023-04-14T12:52:34.390Z,68.85
2023-04-14T12:53:34.552Z,69.77
2023-04-14T12:54:34.698Z,69.16